Manes, Missouri
Current Conditions -  °F | °C
As of 3:58 PM on Sunday 23 Nov 2014 (Local Time) from KTBN Reporting Station
Overcast Overcast  
Wind Chill: 56°   Ceiling: 500
Heat Index: 56°   Visibility: 10mi
Dew Point: 56°   Wind: 3mph
Humidity: 100%   Direction: NA
Pressure: 29.33"   Gusts: NA
Location:  37.2656°N, 92.3257°W
Report Text: KTBN 232158Z AUTO VRB03KT 10SM OVC005 13/13 A2933 RMK AO2 SLP933 T01310131
Loading
Personal Weather Stations






























Interactive Weather Map New forecast layout! Learn more

10-Day Weather Forecast

Advertisements
Track Severe Weather on mobile